sensor_id;sensor_type;location;lat;lon;timestamp;pressure;altitude;pressure_sealevel;temperature;humidity
41690;BME280;27372;42.658;23.256;2023-10-08T00:01:15;94258.56;;;14.48;40.58
41690;BME280;27372;42.658;23.256;2023-10-08T00:03:44;94257.22;;;14.45;40.60
41690;BME280;27372;42.658;23.256;2023-10-08T00:06:17;94254.19;;;14.31;41.01
41690;BME280;27372;42.658;23.256;2023-10-08T00:08:51;94251.19;;;14.00;41.61
41690;BME280;27372;42.658;23.256;2023-10-08T00:11:19;94252.41;;;14.14;41.94
41690;BME280;27372;42.658;23.256;2023-10-08T00:13:47;94255.91;;;14.20;41.56
41690;BME280;27372;42.658;23.256;2023-10-08T00:16:16;94249.97;;;14.08;42.15
41690;BME280;27372;42.658;23.256;2023-10-08T00:18:42;94248.97;;;13.92;43.01
41690;BME280;27372;42.658;23.256;2023-10-08T00:21:14;94251.56;;;14.09;42.02
41690;BME280;27372;42.658;23.256;2023-10-08T00:23:43;94242.91;;;14.13;42.15
41690;BME280;27372;42.658;23.256;2023-10-08T00:26:17;94236.66;;;14.25;41.96
41690;BME280;27372;42.658;23.256;2023-10-08T00:28:45;94236.13;;;14.01;42.91
41690;BME280;27372;42.658;23.256;2023-10-08T00:31:17;94231.16;;;14.04;42.72
41690;BME280;27372;42.658;23.256;2023-10-08T00:33:49;94224.16;;;14.15;42.79
41690;BME280;27372;42.658;23.256;2023-10-08T00:36:17;94241.31;;;14.12;43.13
41690;BME280;27372;42.658;23.256;2023-10-08T00:38:44;94217.53;;;14.40;42.43
41690;BME280;27372;42.658;23.256;2023-10-08T00:41:16;94219.72;;;14.70;41.76
41690;BME280;27372;42.658;23.256;2023-10-08T00:43:42;94217.44;;;14.57;41.97
41690;BME280;27372;42.658;23.256;2023-10-08T00:46:10;94207.00;;;14.67;41.41
41690;BME280;27372;42.658;23.256;2023-10-08T00:49:01;94210.59;;;14.34;43.21
41690;BME280;27372;42.658;23.256;2023-10-08T00:51:54;94211.91;;;14.31;43.00
41690;BME280;27372;42.658;23.256;2023-10-08T00:54:35;94206.13;;;14.07;43.50
41690;BME280;27372;42.658;23.256;2023-10-08T00:57:18;94202.66;;;14.06;43.63
41690;BME280;27372;42.658;23.256;2023-10-08T00:59:48;94212.00;;;14.14;43.45
41690;BME280;27372;42.658;23.256;2023-10-08T01:02:22;94192.00;;;14.23;42.58
41690;BME280;27372;42.658;23.256;2023-10-08T01:04:54;94203.84;;;14.43;41.56
41690;BME280;27372;42.658;23.256;2023-10-08T01:07:21;94191.28;;;14.83;39.09
41690;BME280;27372;42.658;23.256;2023-10-08T01:09:51;94181.75;;;14.87;39.26
41690;BME280;27372;42.658;23.256;2023-10-08T01:12:22;94197.34;;;15.16;37.88
41690;BME280;27372;42.658;23.256;2023-10-08T01:15:11;94180.56;;;15.00;39.63
41690;BME280;27372;42.658;23.256;2023-10-08T01:17:48;94197.91;;;14.90;39.47
41690;BME280;27372;42.658;23.256;2023-10-08T01:20:32;94195.13;;;15.07;38.52
41690;BME280;27372;42.658;23.256;2023-10-08T01:23:13;94185.59;;;15.06;38.82
41690;BME280;27372;42.658;23.256;2023-10-08T01:25:46;94182.13;;;15.01;39.45
41690;BME280;27372;42.658;23.256;2023-10-08T01:28:21;94198.09;;;14.51;40.82
41690;BME280;27372;42.658;23.256;2023-10-08T01:30:55;94189.66;;;14.82;39.24
41690;BME280;27372;42.658;23.256;2023-10-08T01:33:28;94179.28;;;14.70;39.49
41690;BME280;27372;42.658;23.256;2023-10-08T01:35:55;94193.16;;;14.60;40.87
41690;BME280;27372;42.658;23.256;2023-10-08T01:38:32;94188.78;;;15.03;37.64
41690;BME280;27372;42.658;23.256;2023-10-08T01:41:00;94178.28;;;15.14;37.61
41690;BME280;27372;42.658;23.256;2023-10-08T01:43:29;94192.19;;;14.99;39.30
41690;BME280;27372;42.658;23.256;2023-10-08T01:45:55;94183.19;;;15.43;37.04
41690;BME280;27372;42.658;23.256;2023-10-08T01:48:21;94189.50;;;15.31;36.96
41690;BME280;27372;42.658;23.256;2023-10-08T01:50:57;94208.16;;;15.14;39.13
41690;BME280;27372;42.658;23.256;2023-10-08T01:53:29;94194.16;;;15.19;38.30
41690;BME280;27372;42.658;23.256;2023-10-08T01:55:56;94198.53;;;15.03;38.88
41690;BME280;27372;42.658;23.256;2023-10-08T01:58:23;94197.25;;;14.73;40.29
41690;BME280;27372;42.658;23.256;2023-10-08T02:00:49;94186.75;;;14.78;39.55
41690;BME280;27372;42.658;23.256;2023-10-08T02:03:23;94193.13;;;14.55;40.61
41690;BME280;27372;42.658;23.256;2023-10-08T02:05:57;94180.78;;;14.98;39.21
41690;BME280;27372;42.658;23.256;2023-10-08T02:08:25;94186.66;;;14.68;41.13
41690;BME280;27372;42.658;23.256;2023-10-08T02:10:51;94192.91;;;14.62;40.96
41690;BME280;27372;42.658;23.256;2023-10-08T02:13:20;94185.22;;;14.60;40.90
41690;BME280;27372;42.658;23.256;2023-10-08T02:15:49;94180.06;;;14.43;41.65
41690;BME280;27372;42.658;23.256;2023-10-08T02:18:17;94198.22;;;14.12;42.51
41690;BME280;27372;42.658;23.256;2023-10-08T02:20:43;94179.06;;;14.22;41.94
41690;BME280;27372;42.658;23.256;2023-10-08T02:23:09;94179.31;;;14.75;40.40
41690;BME280;27372;42.658;23.256;2023-10-08T02:25:38;94178.84;;;14.83;40.12
41690;BME280;27372;42.658;23.256;2023-10-08T02:28:06;94186.53;;;14.85;40.27
41690;BME280;27372;42.658;23.256;2023-10-08T02:30:36;94192.88;;;14.56;41.01
41690;BME280;27372;42.658;23.256;2023-10-08T02:33:02;94169.97;;;14.67;40.39
41690;BME280;27372;42.658;23.256;2023-10-08T02:35:28;94179.97;;;14.93;39.96
41690;BME280;27372;42.658;23.256;2023-10-08T02:37:53;94177.09;;;14.99;40.32
41690;BME280;27372;42.658;23.256;2023-10-08T02:40:20;94165.94;;;14.92;39.52
41690;BME280;27372;42.658;23.256;2023-10-08T02:42:52;94171.56;;;15.01;40.21
41690;BME280;27372;42.658;23.256;2023-10-08T02:45:25;94175.56;;;15.09;40.51
41690;BME280;27372;42.658;23.256;2023-10-08T02:47:50;94174.59;;;14.82;41.12
41690;BME280;27372;42.658;23.256;2023-10-08T02:50:19;94178.53;;;14.80;40.86
41690;BME280;27372;42.658;23.256;2023-10-08T02:52:45;94183.25;;;14.72;41.59
41690;BME280;27372;42.658;23.256;2023-10-08T02:55:11;94189.13;;;14.80;43.26
41690;BME280;27372;42.658;23.256;2023-10-08T02:58:03;94185.72;;;14.29;43.45
41690;BME280;27372;42.658;23.256;2023-10-08T03:00:29;94194.91;;;14.22;44.29
41690;BME280;27372;42.658;23.256;2023-10-08T03:03:00;94191.34;;;14.33;44.71
41690;BME280;27372;42.658;23.256;2023-10-08T03:05:28;94194.31;;;13.92;46.43
41690;BME280;27372;42.658;23.256;2023-10-08T03:08:02;94197.72;;;13.65;47.11
41690;BME280;27372;42.658;23.256;2023-10-08T03:10:30;94210.13;;;13.87;48.31
41690;BME280;27372;42.658;23.256;2023-10-08T03:12:58;94199.44;;;13.77;47.89
41690;BME280;27372;42.658;23.256;2023-10-08T03:15:31;94192.75;;;12.96;49.48
41690;BME280;27372;42.658;23.256;2023-10-08T03:18:04;94182.00;;;12.80;49.70
41690;BME280;27372;42.658;23.256;2023-10-08T03:20:43;94183.81;;;13.36;45.89
41690;BME280;27372;42.658;23.256;2023-10-08T03:23:14;94191.50;;;13.99;43.82
41690;BME280;27372;42.658;23.256;2023-10-08T03:25:57;94167.50;;;14.28;43.39
41690;BME280;27372;42.658;23.256;2023-10-08T03:28:33;94176.44;;;14.00;43.67
41690;BME280;27372;42.658;23.256;2023-10-08T03:31:26;94165.78;;;14.17;43.24
41690;BME280;27372;42.658;23.256;2023-10-08T03:34:24;94176.44;;;14.22;43.17
41690;BME280;27372;42.658;23.256;2023-10-08T03:37:17;94169.25;;;14.17;43.40
41690;BME280;27372;42.658;23.256;2023-10-08T03:40:03;94174.47;;;14.39;42.16
41690;BME280;27372;42.658;23.256;2023-10-08T03:42:56;94163.25;;;14.54;42.61
41690;BME280;27372;42.658;23.256;2023-10-08T03:45:22;94166.22;;;14.63;41.71
41690;BME280;27372;42.658;23.256;2023-10-08T03:48:12;94176.47;;;14.87;40.90
41690;BME280;27372;42.658;23.256;2023-10-08T03:50:46;94150.50;;;14.73;41.24
41690;BME280;27372;42.658;23.256;2023-10-08T03:53:22;94154.56;;;14.59;41.41
41690;BME280;27372;42.658;23.256;2023-10-08T03:55:50;94167.59;;;14.38;41.89
41690;BME280;27372;42.658;23.256;2023-10-08T03:58:19;94174.09;;;14.58;41.59
41690;BME280;27372;42.658;23.256;2023-10-08T04:01:01;94145.69;;;14.70;41.46
41690;BME280;27372;42.658;23.256;2023-10-08T04:03:46;94148.38;;;14.75;41.92
41690;BME280;27372;42.658;23.256;2023-10-08T04:06:29;94141.22;;;14.43;42.56
41690;BME280;27372;42.658;23.256;2023-10-08T04:12:08;94144.09;;;15.07;40.69
41690;BME280;27372;42.658;23.256;2023-10-08T04:14:39;94142.06;;;15.19;39.59
41690;BME280;27372;42.658;23.256;2023-10-08T04:17:04;94143.06;;;15.08;40.32
41690;BME280;27372;42.658;23.256;2023-10-08T04:19:33;94141.50;;;14.74;41.21
41690;BME280;27372;42.658;23.256;2023-10-08T04:21:58;94145.22;;;15.21;40.30
41690;BME280;27372;42.658;23.256;2023-10-08T04:24:26;94140.06;;;14.94;41.12
41690;BME280;27372;42.658;23.256;2023-10-08T04:27:17;94144.31;;;14.95;40.07
41690;BME280;27372;42.658;23.256;2023-10-08T04:30:00;94146.06;;;14.84;39.73
41690;BME280;27372;42.658;23.256;2023-10-08T04:32:29;94142.44;;;14.96;39.14
41690;BME280;27372;42.658;23.256;2023-10-08T04:35:11;94130.75;;;14.86;39.78
41690;BME280;27372;42.658;23.256;2023-10-08T04:37:46;94134.53;;;15.01;39.52
41690;BME280;27372;42.658;23.256;2023-10-08T04:40:29;94130.09;;;14.69;39.69
41690;BME280;27372;42.658;23.256;2023-10-08T04:43:19;94142.84;;;14.77;39.73
41690;BME280;27372;42.658;23.256;2023-10-08T04:46:05;94127.47;;;15.12;37.97
41690;BME280;27372;42.658;23.256;2023-10-08T04:49:04;94125.09;;;14.72;38.72
41690;BME280;27372;42.658;23.256;2023-10-08T04:51:47;94142.56;;;14.73;39.52
41690;BME280;27372;42.658;23.256;2023-10-08T04:54:14;94147.09;;;14.83;38.28
41690;BME280;27372;42.658;23.256;2023-10-08T04:56:52;94147.78;;;15.06;37.58
41690;BME280;27372;42.658;23.256;2023-10-08T04:59:24;94156.13;;;15.25;38.19
41690;BME280;27372;42.658;23.256;2023-10-08T05:01:58;94140.06;;;14.94;37.28
41690;BME280;27372;42.658;23.256;2023-10-08T05:04:41;94145.09;;;15.01;36.50
41690;BME280;27372;42.658;23.256;2023-10-08T05:07:16;94144.59;;;14.99;41.76
41690;BME280;27372;42.658;23.256;2023-10-08T05:12:47;94144.94;;;14.15;47.72
41690;BME280;27372;42.658;23.256;2023-10-08T05:15:26;94151.53;;;14.45;45.73
41690;BME280;27372;42.658;23.256;2023-10-08T05:18:21;94142.13;;;14.27;47.03
41690;BME280;27372;42.658;23.256;2023-10-08T05:20:47;94157.84;;;14.39;46.36
41690;BME280;27372;42.658;23.256;2023-10-08T05:23:16;94157.69;;;14.56;46.23
41690;BME280;27372;42.658;23.256;2023-10-08T05:26:08;94152.47;;;14.06;47.08
41690;BME280;27372;42.658;23.256;2023-10-08T05:28:48;94168.63;;;14.10;45.69
41690;BME280;27372;42.658;23.256;2023-10-08T05:31:39;94158.50;;;14.24;45.17
41690;BME280;27372;42.658;23.256;2023-10-08T05:34:28;94160.69;;;13.82;44.48
41690;BME280;27372;42.658;23.256;2023-10-08T05:37:09;94160.31;;;14.23;44.70
41690;BME280;27372;42.658;23.256;2023-10-08T05:40:32;94159.19;;;14.47;47.15
41690;BME280;27372;42.658;23.256;2023-10-08T05:43:28;94155.03;;;14.51;45.55
41690;BME280;27372;42.658;23.256;2023-10-08T05:48:54;94167.69;;;14.76;57.16
41690;BME280;27372;42.658;23.256;2023-10-08T05:51:40;94180.97;;;15.24;62.93
41690;BME280;27372;42.658;23.256;2023-10-08T05:54:16;94184.59;;;15.56;58.73
41690;BME280;27372;42.658;23.256;2023-10-08T05:57:08;94180.56;;;15.96;61.42
41690;BME280;27372;42.658;23.256;2023-10-08T06:02:31;94187.06;;;16.88;49.22
41690;BME280;27372;42.658;23.256;2023-10-08T06:05:03;94186.00;;;16.53;45.25
41690;BME280;27372;42.658;23.256;2023-10-08T06:07:42;94191.66;;;15.40;43.32
41690;BME280;27372;42.658;23.256;2023-10-08T06:10:29;94177.97;;;15.53;45.39
41690;BME280;27372;42.658;23.256;2023-10-08T06:12:55;94172.75;;;15.74;45.10
41690;BME280;27372;42.658;23.256;2023-10-08T06:15:41;94175.06;;;16.23;44.51
41690;BME280;27372;42.658;23.256;2023-10-08T06:20:58;94184.38;;;16.36;38.76
41690;BME280;27372;42.658;23.256;2023-10-08T06:23:38;94180.16;;;16.66;38.44
41690;BME280;27372;42.658;23.256;2023-10-08T06:26:04;94159.75;;;16.67;37.32
41690;BME280;27372;42.658;23.256;2023-10-08T06:28:40;94168.50;;;16.93;36.48
41690;BME280;27372;42.658;23.256;2023-10-08T06:31:07;94165.59;;;17.05;36.97
41690;BME280;27372;42.658;23.256;2023-10-08T06:33:48;94159.78;;;17.08;35.44
41690;BME280;27372;42.658;23.256;2023-10-08T06:36:14;94164.00;;;17.25;34.89
41690;BME280;27372;42.658;23.256;2023-10-08T06:38:56;94160.00;;;17.27;34.26
41690;BME280;27372;42.658;23.256;2023-10-08T06:41:21;94179.34;;;17.48;33.51
41690;BME280;27372;42.658;23.256;2023-10-08T06:43:54;94169.75;;;17.52;33.46
41690;BME280;27372;42.658;23.256;2023-10-08T06:46:29;94176.31;;;17.81;33.08
41690;BME280;27372;42.658;23.256;2023-10-08T06:49:08;94169.72;;;17.68;33.86
41690;BME280;27372;42.658;23.256;2023-10-08T06:51:37;94184.81;;;17.83;34.17
41690;BME280;27372;42.658;23.256;2023-10-08T06:54:18;94177.69;;;17.68;33.03
41690;BME280;27372;42.658;23.256;2023-10-08T06:56:59;94177.09;;;17.81;33.42
41690;BME280;27372;42.658;23.256;2023-10-08T07:00:12;94167.00;;;17.83;33.07
41690;BME280;27372;42.658;23.256;2023-10-08T07:02:57;94173.59;;;18.02;32.51
41690;BME280;27372;42.658;23.256;2023-10-08T07:05:53;94157.03;;;18.20;31.81
41690;BME280;27372;42.658;23.256;2023-10-08T07:08:35;94173.47;;;18.27;32.65
41690;BME280;27372;42.658;23.256;2023-10-08T07:38:47;94157.25;;;19.57;32.77
41690;BME280;27372;42.658;23.256;2023-10-08T07:41:37;94147.28;;;19.44;33.37
41690;BME280;27372;42.658;23.256;2023-10-08T07:44:03;94150.59;;;19.06;34.11
41690;BME280;27372;42.658;23.256;2023-10-08T07:46:32;94138.84;;;18.72;34.63
41690;BME280;27372;42.658;23.256;2023-10-08T07:49:00;94148.09;;;18.51;35.16
41690;BME280;27372;42.658;23.256;2023-10-08T07:51:28;94137.00;;;18.73;34.99
41690;BME280;27372;42.658;23.256;2023-10-08T07:53:53;94143.16;;;18.68;35.13
41690;BME280;27372;42.658;23.256;2023-10-08T07:56:22;94120.84;;;18.64;35.50
41690;BME280;27372;42.658;23.256;2023-10-08T07:58:49;94155.34;;;18.74;34.63
41690;BME280;27372;42.658;23.256;2023-10-08T08:01:14;94130.31;;;18.75;34.61
41690;BME280;27372;42.658;23.256;2023-10-08T08:03:41;94128.09;;;18.88;35.49
41690;BME280;27372;42.658;23.256;2023-10-08T08:06:08;94127.19;;;19.03;35.57
41690;BME280;27372;42.658;23.256;2023-10-08T08:08:43;94139.91;;;19.35;33.94
41690;BME280;27372;42.658;23.256;2023-10-08T08:11:15;94092.28;;;19.34;33.58
41690;BME280;27372;42.658;23.256;2023-10-08T08:13:45;94109.84;;;19.59;32.98
41690;BME280;27372;42.658;23.256;2023-10-08T08:16:14;94101.34;;;19.57;33.69
41690;BME280;27372;42.658;23.256;2023-10-08T08:21:11;94119.34;;;19.90;32.82
41690;BME280;27372;42.658;23.256;2023-10-08T08:23:46;94137.81;;;20.05;32.24
41690;BME280;27372;42.658;23.256;2023-10-08T08:26:22;94107.13;;;20.08;32.25
41690;BME280;27372;42.658;23.256;2023-10-08T08:29:03;94129.69;;;20.35;31.97
41690;BME280;27372;42.658;23.256;2023-10-08T08:31:35;94095.22;;;20.19;32.12
41690;BME280;27372;42.658;23.256;2023-10-08T08:34:13;94129.97;;;20.14;31.39
41690;BME280;27372;42.658;23.256;2023-10-08T08:36:49;94110.06;;;20.25;32.04
41690;BME280;27372;42.658;23.256;2023-10-08T08:39:20;94115.41;;;20.25;31.79
41690;BME280;27372;42.658;23.256;2023-10-08T08:42:00;94104.97;;;20.29;32.45
41690;BME280;27372;42.658;23.256;2023-10-08T08:44:31;94117.06;;;20.21;32.19
41690;BME280;27372;42.658;23.256;2023-10-08T08:47:00;94112.53;;;20.22;32.76
41690;BME280;27372;42.658;23.256;2023-10-08T08:49:35;94108.47;;;20.62;32.41
41690;BME280;27372;42.658;23.256;2023-10-08T08:52:14;94092.34;;;20.87;31.01
41690;BME280;27372;42.658;23.256;2023-10-08T08:54:47;94099.81;;;21.04;31.72
41690;BME280;27372;42.658;23.256;2023-10-08T08:57:13;94106.47;;;21.48;31.38
41690;BME280;27372;42.658;23.256;2023-10-08T09:02:49;94103.00;;;21.34;31.07
41690;BME280;27372;42.658;23.256;2023-10-08T09:05:32;94103.28;;;21.32;31.37
41690;BME280;27372;42.658;23.256;2023-10-08T09:08:14;94105.38;;;21.35;30.75
41690;BME280;27372;42.658;23.256;2023-10-08T09:10:46;94096.84;;;21.19;31.13
41690;BME280;27372;42.658;23.256;2023-10-08T09:13:22;94091.84;;;21.60;30.43
41690;BME280;27372;42.658;23.256;2023-10-08T09:15:49;94092.44;;;21.56;30.10
41690;BME280;27372;42.658;23.256;2023-10-08T09:18:14;94082.63;;;21.38;30.36
41690;BME280;27372;42.658;23.256;2023-10-08T09:20:40;94104.34;;;21.17;30.46
41690;BME280;27372;42.658;23.256;2023-10-08T09:23:16;94100.16;;;21.72;30.66
41690;BME280;27372;42.658;23.256;2023-10-08T09:25:44;94073.34;;;22.14;29.80
41690;BME280;27372;42.658;23.256;2023-10-08T09:28:11;94081.22;;;22.33;30.23
41690;BME280;27372;42.658;23.256;2023-10-08T09:30:43;94075.72;;;23.06;28.96
41690;BME280;27372;42.658;23.256;2023-10-08T09:33:14;94076.53;;;23.38;28.33
41690;BME280;27372;42.658;23.256;2023-10-08T09:35:49;94068.03;;;23.45;28.56
41690;BME280;27372;42.658;23.256;2023-10-08T09:38:29;94070.16;;;23.75;28.72
41690;BME280;27372;42.658;23.256;2023-10-08T09:40:56;94074.63;;;23.97;28.14
41690;BME280;27372;42.658;23.256;2023-10-08T09:43:43;94067.84;;;23.33;28.29
41690;BME280;27372;42.658;23.256;2023-10-08T09:46:20;94083.72;;;23.69;27.26
41690;BME280;27372;42.658;23.256;2023-10-08T09:48:57;94061.66;;;23.81;27.63
41690;BME280;27372;42.658;23.256;2023-10-08T09:51:39;94060.94;;;24.42;26.96
41690;BME280;27372;42.658;23.256;2023-10-08T09:54:24;94061.41;;;24.71;26.00
41690;BME280;27372;42.658;23.256;2023-10-08T09:57:01;94051.81;;;25.08;25.89
41690;BME280;27372;42.658;23.256;2023-10-08T09:59:30;94053.91;;;25.03;26.16
41690;BME280;27372;42.658;23.256;2023-10-08T10:01:55;94048.97;;;25.14;26.20
41690;BME280;27372;42.658;23.256;2023-10-08T10:04:24;94051.56;;;24.92;25.95
41690;BME280;27372;42.658;23.256;2023-10-08T10:06:55;94048.13;;;25.22;25.76
41690;BME280;27372;42.658;23.256;2023-10-08T10:09:24;94047.78;;;25.92;25.31
41690;BME280;27372;42.658;23.256;2023-10-08T10:11:57;94053.09;;;25.11;25.84
41690;BME280;27372;42.658;23.256;2023-10-08T10:14:42;94048.59;;;25.33;25.78
41690;BME280;27372;42.658;23.256;2023-10-08T10:17:24;94028.78;;;25.07;26.19
41690;BME280;27372;42.658;23.256;2023-10-08T10:23:38;94037.75;;;25.80;25.41
41690;BME280;27372;42.658;23.256;2023-10-08T10:26:34;94042.81;;;26.03;25.29
41690;BME280;27372;42.658;23.256;2023-10-08T10:32:15;94026.00;;;25.64;26.09
41690;BME280;27372;42.658;23.256;2023-10-08T10:34:57;94008.38;;;25.45;26.12
41690;BME280;27372;42.658;23.256;2023-10-08T10:40:26;94012.50;;;25.34;26.75
41690;BME280;27372;42.658;23.256;2023-10-08T10:43:23;94000.31;;;25.06;27.55
41690;BME280;27372;42.658;23.256;2023-10-08T10:45:54;93999.81;;;24.74;27.32
41690;BME280;27372;42.658;23.256;2023-10-08T10:48:21;94002.06;;;24.19;28.28
41690;BME280;27372;42.658;23.256;2023-10-08T10:50:47;94002.66;;;23.72;28.94
41690;BME280;27372;42.658;23.256;2023-10-08T10:53:39;94000.13;;;23.76;28.82
41690;BME280;27372;42.658;23.256;2023-10-08T10:56:33;93989.97;;;23.38;29.61
41690;BME280;27372;42.658;23.256;2023-10-08T10:59:12;93984.34;;;23.08;29.88
41690;BME280;27372;42.658;23.256;2023-10-08T11:02:01;93993.22;;;22.45;31.26
41690;BME280;27372;42.658;23.256;2023-10-08T11:04:45;93982.41;;;22.37;31.08
41690;BME280;27372;42.658;23.256;2023-10-08T11:07:18;93971.91;;;22.40;30.93
41690;BME280;27372;42.658;23.256;2023-10-08T11:09:47;93977.97;;;22.32;31.48
41690;BME280;27372;42.658;23.256;2023-10-08T11:12:20;93997.88;;;22.17;31.82
41690;BME280;27372;42.658;23.256;2023-10-08T11:18:11;93993.13;;;21.91;32.60
41690;BME280;27372;42.658;23.256;2023-10-08T11:20:37;93968.25;;;21.91;33.04
41690;BME280;27372;42.658;23.256;2023-10-08T11:23:08;93973.19;;;21.97;32.80
41690;BME280;27372;42.658;23.256;2023-10-08T11:26:00;93965.84;;;22.03;33.66
41690;BME280;27372;42.658;23.256;2023-10-08T11:28:33;93970.63;;;22.15;33.54
41690;BME280;27372;42.658;23.256;2023-10-08T11:31:19;93959.03;;;22.19;33.53
41690;BME280;27372;42.658;23.256;2023-10-08T11:34:10;93953.56;;;22.47;33.19
41690;BME280;27372;42.658;23.256;2023-10-08T11:36:44;93963.75;;;22.68;32.89
41690;BME280;27372;42.658;23.256;2023-10-08T11:39:27;93954.41;;;22.57;33.39
41690;BME280;27372;42.658;23.256;2023-10-08T11:42:03;93950.66;;;22.67;33.50
41690;BME280;27372;42.658;23.256;2023-10-08T11:45:03;93962.28;;;22.62;33.19
41690;BME280;27372;42.658;23.256;2023-10-08T11:47:45;93963.00;;;22.85;33.14
41690;BME280;27372;42.658;23.256;2023-10-08T11:50:15;93971.03;;;22.85;33.38
41690;BME280;27372;42.658;23.256;2023-10-08T11:52:46;93972.66;;;22.95;33.45
41690;BME280;27372;42.658;23.256;2023-10-08T11:55:12;93960.69;;;23.01;32.73
41690;BME280;27372;42.658;23.256;2023-10-08T11:57:45;93963.16;;;22.80;32.97
41690;BME280;27372;42.658;23.256;2023-10-08T12:00:12;93963.75;;;22.68;33.05
41690;BME280;27372;42.658;23.256;2023-10-08T12:02:48;93962.53;;;22.52;33.41
41690;BME280;27372;42.658;23.256;2023-10-08T12:05:14;93967.38;;;22.41;32.76
41690;BME280;27372;42.658;23.256;2023-10-08T12:08:05;93967.22;;;22.23;33.48
41690;BME280;27372;42.658;23.256;2023-10-08T12:10:33;93966.94;;;22.25;33.19
41690;BME280;27372;42.658;23.256;2023-10-08T12:13:00;93946.81;;;22.27;33.29
41690;BME280;27372;42.658;23.256;2023-10-08T12:15:31;93964.38;;;22.42;33.14
41690;BME280;27372;42.658;23.256;2023-10-08T12:18:04;93958.47;;;22.54;32.90
41690;BME280;27372;42.658;23.256;2023-10-08T12:20:51;93959.91;;;22.38;33.16
41690;BME280;27372;42.658;23.256;2023-10-08T12:23:20;93964.69;;;23.13;32.19
41690;BME280;27372;42.658;23.256;2023-10-08T12:25:57;93967.31;;;23.53;31.67
41690;BME280;27372;42.658;23.256;2023-10-08T12:28:23;93966.84;;;23.60;31.22
41690;BME280;27372;42.658;23.256;2023-10-08T12:30:53;93962.44;;;23.55;32.12
41690;BME280;27372;42.658;23.256;2023-10-08T12:33:22;93970.97;;;23.92;30.95
41690;BME280;27372;42.658;23.256;2023-10-08T12:35:51;93962.47;;;24.16;30.81
41690;BME280;27372;42.658;23.256;2023-10-08T12:38:24;93962.50;;;24.73;30.74
41690;BME280;27372;42.658;23.256;2023-10-08T12:40:55;93964.22;;;25.76;29.74
41690;BME280;27372;42.658;23.256;2023-10-08T12:43:27;93967.19;;;25.23;30.07
41690;BME280;27372;42.658;23.256;2023-10-08T12:45:54;93968.59;;;25.00;29.90
41690;BME280;27372;42.658;23.256;2023-10-08T12:48:27;93968.22;;;24.71;30.85
41690;BME280;27372;42.658;23.256;2023-10-08T12:50:53;93961.56;;;23.95;32.03
41690;BME280;27372;42.658;23.256;2023-10-08T12:53:30;93959.28;;;23.44;32.37
41690;BME280;27372;42.658;23.256;2023-10-08T12:56:09;93956.59;;;22.95;33.43
41690;BME280;27372;42.658;23.256;2023-10-08T12:58:56;93946.38;;;22.97;33.75
41690;BME280;27372;42.658;23.256;2023-10-08T13:01:35;93944.84;;;23.14;33.18
41690;BME280;27372;42.658;23.256;2023-10-08T13:04:05;93944.84;;;23.14;33.21
41690;BME280;27372;42.658;23.256;2023-10-08T13:06:44;93934.53;;;23.56;33.02
41690;BME280;27372;42.658;23.256;2023-10-08T13:09:12;93939.44;;;23.98;32.35
41690;BME280;27372;42.658;23.256;2023-10-08T13:11:40;93934.03;;;24.42;31.59
41690;BME280;27372;42.658;23.256;2023-10-08T13:14:09;93950.09;;;24.98;30.68
41690;BME280;27372;42.658;23.256;2023-10-08T13:16:39;93932.22;;;25.62;30.61
41690;BME280;27372;42.658;23.256;2023-10-08T13:19:19;93927.22;;;25.52;29.92
41690;BME280;27372;42.658;23.256;2023-10-08T13:21:47;93933.94;;;25.37;29.91
41690;BME280;27372;42.658;23.256;2023-10-08T13:24:17;93919.44;;;24.99;30.72
41690;BME280;27372;42.658;23.256;2023-10-08T13:26:56;93918.22;;;24.49;31.42
41690;BME280;27372;42.658;23.256;2023-10-08T13:29:23;93901.25;;;23.92;32.06
41690;BME280;27372;42.658;23.256;2023-10-08T13:31:54;93920.28;;;24.43;31.86
41690;BME280;27372;42.658;23.256;2023-10-08T13:34:25;93929.41;;;24.99;31.27
41690;BME280;27372;42.658;23.256;2023-10-08T13:36:57;93912.88;;;25.69;29.64
41690;BME280;27372;42.658;23.256;2023-10-08T13:39:33;93899.28;;;25.44;30.03
41690;BME280;27372;42.658;23.256;2023-10-08T13:42:01;93916.56;;;25.13;30.18
41690;BME280;27372;42.658;23.256;2023-10-08T13:44:29;93919.31;;;24.95;30.17
41690;BME280;27372;42.658;23.256;2023-10-08T13:46:56;93918.00;;;24.63;30.15
41690;BME280;27372;42.658;23.256;2023-10-08T13:49:26;93908.03;;;24.16;31.29
41690;BME280;27372;42.658;23.256;2023-10-08T13:51:55;93914.06;;;23.78;31.34
41690;BME280;27372;42.658;23.256;2023-10-08T13:54:31;93912.47;;;23.77;31.49
41690;BME280;27372;42.658;23.256;2023-10-08T13:57:06;93922.88;;;23.69;31.81
41690;BME280;27372;42.658;23.256;2023-10-08T13:59:40;93914.00;;;23.25;32.05
41690;BME280;27372;42.658;23.256;2023-10-08T14:02:08;93912.75;;;23.22;32.09
41690;BME280;27372;42.658;23.256;2023-10-08T14:04:43;93919.31;;;23.16;32.80
41690;BME280;27372;42.658;23.256;2023-10-08T14:07:16;93922.53;;;23.36;32.56
41690;BME280;27372;42.658;23.256;2023-10-08T14:09:47;93928.81;;;23.31;32.08
41690;BME280;27372;42.658;23.256;2023-10-08T14:12:13;93923.72;;;23.12;32.79
41690;BME280;27372;42.658;23.256;2023-10-08T14:14:45;93938.25;;;22.71;32.93
41690;BME280;27372;42.658;23.256;2023-10-08T14:17:17;93917.28;;;22.64;33.58
41690;BME280;27372;42.658;23.256;2023-10-08T14:20:06;93914.69;;;22.90;33.01
41690;BME280;27372;42.658;23.256;2023-10-08T14:23:04;93929.00;;;23.61;31.74
41690;BME280;27372;42.658;23.256;2023-10-08T14:25:35;93928.72;;;23.89;31.26
41690;BME280;27372;42.658;23.256;2023-10-08T14:28:10;93935.06;;;24.67;31.03
41690;BME280;27372;42.658;23.256;2023-10-08T14:30:50;93928.28;;;24.52;30.46